sensor_id;sensor_type;location;lat;lon;timestamp;temperature;humidity
64685;DHT22;51109;47.414;18.954;2023-04-24T00:00:11;13.50;99.90
64685;DHT22;51109;47.414;18.954;2023-04-24T00:02:41;13.60;99.90
64685;DHT22;51109;47.414;18.954;2023-04-24T00:05:13;13.40;99.90
64685;DHT22;51109;47.414;18.954;2023-04-24T00:07:43;13.40;99.90
64685;DHT22;51109;47.414;18.954;2023-04-24T00:10:10;13.50;99.90
64685;DHT22;51109;47.414;18.954;2023-04-24T00:12:36;13.50;99.90
64685;DHT22;51109;47.414;18.954;2023-04-24T00:15:03;13.40;99.90
64685;DHT22;51109;47.414;18.954;2023-04-24T00:17:29;13.20;99.90
64685;DHT22;51109;47.414;18.954;2023-04-24T00:19:56;13.20;99.90
64685;DHT22;51109;47.414;18.954;2023-04-24T00:22:25;13.30;99.90
64685;DHT22;51109;47.414;18.954;2023-04-24T00:24:51;13.40;99.90
64685;DHT22;51109;47.414;18.954;2023-04-24T00:27:17;13.50;99.90
64685;DHT22;51109;47.414;18.954;2023-04-24T00:29:43;13.50;99.90
64685;DHT22;51109;47.414;18.954;2023-04-24T00:32:09;13.50;99.90
64685;DHT22;51109;47.414;18.954;2023-04-24T00:34:35;13.40;99.90
64685;DHT22;51109;47.414;18.954;2023-04-24T00:37:01;13.40;99.90
64685;DHT22;51109;47.414;18.954;2023-04-24T00:39:27;13.40;99.90
64685;DHT22;51109;47.414;18.954;2023-04-24T00:41:53;13.30;99.90
64685;DHT22;51109;47.414;18.954;2023-04-24T00:44:21;13.30;99.90
64685;DHT22;51109;47.414;18.954;2023-04-24T00:46:47;13.30;99.90
64685;DHT22;51109;47.414;18.954;2023-04-24T00:49:21;13.30;99.90
64685;DHT22;51109;47.414;18.954;2023-04-24T00:51:47;13.40;99.90
64685;DHT22;51109;47.414;18.954;2023-04-24T00:54:17;13.40;99.90
64685;DHT22;51109;47.414;18.954;2023-04-24T00:56:44;13.40;99.90
64685;DHT22;51109;47.414;18.954;2023-04-24T00:59:11;13.30;99.90
64685;DHT22;51109;47.414;18.954;2023-04-24T01:01:38;13.20;99.90
64685;DHT22;51109;47.414;18.954;2023-04-24T01:04:08;13.20;99.90
64685;DHT22;51109;47.414;18.954;2023-04-24T01:06:40;13.10;99.90
64685;DHT22;51109;47.414;18.954;2023-04-24T01:09:10;13.10;99.90
64685;DHT22;51109;47.414;18.954;2023-04-24T01:11:37;13.20;99.90
64685;DHT22;51109;47.414;18.954;2023-04-24T01:14:04;13.10;99.90
64685;DHT22;51109;47.414;18.954;2023-04-24T01:16:30;13.10;99.90
64685;DHT22;51109;47.414;18.954;2023-04-24T01:18:56;13.00;99.90
64685;DHT22;51109;47.414;18.954;2023-04-24T01:21:23;13.00;99.90
64685;DHT22;51109;47.414;18.954;2023-04-24T01:23:53;13.00;99.90
64685;DHT22;51109;47.414;18.954;2023-04-24T01:26:19;13.00;99.90
64685;DHT22;51109;47.414;18.954;2023-04-24T01:28:46;13.00;99.90
64685;DHT22;51109;47.414;18.954;2023-04-24T01:31:12;13.00;99.90
64685;DHT22;51109;47.414;18.954;2023-04-24T01:33:38;13.00;99.90
64685;DHT22;51109;47.414;18.954;2023-04-24T01:36:04;12.80;99.90
64685;DHT22;51109;47.414;18.954;2023-04-24T01:38:30;12.70;99.90
64685;DHT22;51109;47.414;18.954;2023-04-24T01:40:56;12.50;99.90
64685;DHT22;51109;47.414;18.954;2023-04-24T01:43:22;12.40;99.90
64685;DHT22;51109;47.414;18.954;2023-04-24T01:45:48;12.30;99.90
64685;DHT22;51109;47.414;18.954;2023-04-24T01:48:14;12.30;99.90
64685;DHT22;51109;47.414;18.954;2023-04-24T01:50:40;12.30;99.90
64685;DHT22;51109;47.414;18.954;2023-04-24T01:53:06;12.30;99.90
64685;DHT22;51109;47.414;18.954;2023-04-24T01:55:33;12.20;99.90
64685;DHT22;51109;47.414;18.954;2023-04-24T01:57:59;12.30;99.90
64685;DHT22;51109;47.414;18.954;2023-04-24T02:00:26;12.30;99.90
64685;DHT22;51109;47.414;18.954;2023-04-24T02:02:52;12.20;99.90
64685;DHT22;51109;47.414;18.954;2023-04-24T02:05:18;12.20;99.90
64685;DHT22;51109;47.414;18.954;2023-04-24T02:07:44;12.10;99.90
64685;DHT22;51109;47.414;18.954;2023-04-24T02:10:10;12.10;99.90
64685;DHT22;51109;47.414;18.954;2023-04-24T02:12:37;12.10;99.90
64685;DHT22;51109;47.414;18.954;2023-04-24T02:15:03;12.20;99.90
64685;DHT22;51109;47.414;18.954;2023-04-24T02:17:29;12.10;99.90
64685;DHT22;51109;47.414;18.954;2023-04-24T02:19:55;12.20;99.90
64685;DHT22;51109;47.414;18.954;2023-04-24T02:22:21;12.10;99.90
64685;DHT22;51109;47.414;18.954;2023-04-24T02:24:46;12.20;99.90
64685;DHT22;51109;47.414;18.954;2023-04-24T02:27:12;12.10;99.90
64685;DHT22;51109;47.414;18.954;2023-04-24T02:29:38;12.20;99.90
64685;DHT22;51109;47.414;18.954;2023-04-24T02:32:04;12.20;99.90
64685;DHT22;51109;47.414;18.954;2023-04-24T02:34:30;12.20;99.90
64685;DHT22;51109;47.414;18.954;2023-04-24T02:36:56;12.20;99.90
64685;DHT22;51109;47.414;18.954;2023-04-24T02:39:22;12.20;99.90
64685;DHT22;51109;47.414;18.954;2023-04-24T02:41:48;12.20;99.90
64685;DHT22;51109;47.414;18.954;2023-04-24T02:44:14;12.20;99.90
64685;DHT22;51109;47.414;18.954;2023-04-24T02:46:40;12.30;99.90
64685;DHT22;51109;47.414;18.954;2023-04-24T02:49:07;12.20;99.90
64685;DHT22;51109;47.414;18.954;2023-04-24T02:51:33;12.20;99.90
64685;DHT22;51109;47.414;18.954;2023-04-24T02:53:59;12.20;99.90
64685;DHT22;51109;47.414;18.954;2023-04-24T02:56:25;12.20;99.90
64685;DHT22;51109;47.414;18.954;2023-04-24T02:58:51;12.30;99.90
64685;DHT22;51109;47.414;18.954;2023-04-24T03:03:44;12.30;99.90
64685;DHT22;51109;47.414;18.954;2023-04-24T03:06:10;12.30;99.90
64685;DHT22;51109;47.414;18.954;2023-04-24T03:08:36;12.40;99.90
64685;DHT22;51109;47.414;18.954;2023-04-24T03:11:02;12.40;99.90
64685;DHT22;51109;47.414;18.954;2023-04-24T03:13:28;12.40;99.90
64685;DHT22;51109;47.414;18.954;2023-04-24T03:15:54;12.50;99.90
64685;DHT22;51109;47.414;18.954;2023-04-24T03:18:19;12.50;99.90
64685;DHT22;51109;47.414;18.954;2023-04-24T03:20:46;12.50;99.90
64685;DHT22;51109;47.414;18.954;2023-04-24T03:23:12;12.50;99.90
64685;DHT22;51109;47.414;18.954;2023-04-24T03:25:38;12.50;99.90
64685;DHT22;51109;47.414;18.954;2023-04-24T03:28:04;12.50;99.90
64685;DHT22;51109;47.414;18.954;2023-04-24T03:30:30;12.50;99.90
64685;DHT22;51109;47.414;18.954;2023-04-24T03:32:56;12.50;99.90
64685;DHT22;51109;47.414;18.954;2023-04-24T03:35:22;12.40;99.90
64685;DHT22;51109;47.414;18.954;2023-04-24T03:37:48;12.40;99.90
64685;DHT22;51109;47.414;18.954;2023-04-24T03:40:14;12.30;99.90
64685;DHT22;51109;47.414;18.954;2023-04-24T03:42:40;12.30;99.90
64685;DHT22;51109;47.414;18.954;2023-04-24T03:45:07;12.30;99.90
64685;DHT22;51109;47.414;18.954;2023-04-24T03:47:33;12.30;99.90
64685;DHT22;51109;47.414;18.954;2023-04-24T03:49:59;12.20;99.90
64685;DHT22;51109;47.414;18.954;2023-04-24T03:52:25;12.20;99.90
64685;DHT22;51109;47.414;18.954;2023-04-24T03:54:51;12.20;99.90
64685;DHT22;51109;47.414;18.954;2023-04-24T03:57:16;12.20;99.90
64685;DHT22;51109;47.414;18.954;2023-04-24T03:59:42;12.20;99.90
64685;DHT22;51109;47.414;18.954;2023-04-24T04:02:08;12.20;99.90
64685;DHT22;51109;47.414;18.954;2023-04-24T04:04:34;12.20;99.90
64685;DHT22;51109;47.414;18.954;2023-04-24T04:07:00;12.30;99.90
64685;DHT22;51109;47.414;18.954;2023-04-24T04:09:29;12.30;99.90
64685;DHT22;51109;47.414;18.954;2023-04-24T04:11:55;12.40;99.90
64685;DHT22;51109;47.414;18.954;2023-04-24T04:14:22;12.40;99.90
64685;DHT22;51109;47.414;18.954;2023-04-24T04:16:47;12.30;99.90
64685;DHT22;51109;47.414;18.954;2023-04-24T04:19:14;12.20;99.90
64685;DHT22;51109;47.414;18.954;2023-04-24T04:21:39;12.20;99.90
64685;DHT22;51109;47.414;18.954;2023-04-24T04:24:05;12.10;99.90
64685;DHT22;51109;47.414;18.954;2023-04-24T04:26:32;12.10;99.90
64685;DHT22;51109;47.414;18.954;2023-04-24T04:28:59;12.10;99.90
64685;DHT22;51109;47.414;18.954;2023-04-24T04:31:26;12.10;99.90
64685;DHT22;51109;47.414;18.954;2023-04-24T04:33:52;12.10;99.90
64685;DHT22;51109;47.414;18.954;2023-04-24T04:36:18;12.20;99.90
64685;DHT22;51109;47.414;18.954;2023-04-24T04:38:44;12.10;99.90
64685;DHT22;51109;47.414;18.954;2023-04-24T04:41:10;12.10;99.90
64685;DHT22;51109;47.414;18.954;2023-04-24T04:43:36;12.10;99.90
64685;DHT22;51109;47.414;18.954;2023-04-24T04:46:03;12.10;99.90
64685;DHT22;51109;47.414;18.954;2023-04-24T04:48:29;12.10;99.90
64685;DHT22;51109;47.414;18.954;2023-04-24T04:50:58;12.10;99.90
64685;DHT22;51109;47.414;18.954;2023-04-24T04:53:24;12.10;99.90
64685;DHT22;51109;47.414;18.954;2023-04-24T04:55:50;12.10;99.90
64685;DHT22;51109;47.414;18.954;2023-04-24T04:58:16;12.10;99.90
64685;DHT22;51109;47.414;18.954;2023-04-24T05:00:42;12.10;99.90
64685;DHT22;51109;47.414;18.954;2023-04-24T05:03:08;12.20;99.90
64685;DHT22;51109;47.414;18.954;2023-04-24T05:05:33;12.10;99.90
64685;DHT22;51109;47.414;18.954;2023-04-24T05:07:59;12.10;99.90
64685;DHT22;51109;47.414;18.954;2023-04-24T05:10:25;12.10;99.90
64685;DHT22;51109;47.414;18.954;2023-04-24T05:12:51;12.20;99.90
64685;DHT22;51109;47.414;18.954;2023-04-24T05:15:17;12.30;99.90
64685;DHT22;51109;47.414;18.954;2023-04-24T05:17:43;12.30;99.90
64685;DHT22;51109;47.414;18.954;2023-04-24T05:20:10;12.30;99.90
64685;DHT22;51109;47.414;18.954;2023-04-24T05:22:36;12.30;99.90
64685;DHT22;51109;47.414;18.954;2023-04-24T05:25:03;12.30;99.90
64685;DHT22;51109;47.414;18.954;2023-04-24T05:27:29;12.30;99.90
64685;DHT22;51109;47.414;18.954;2023-04-24T05:29:55;12.30;99.90
64685;DHT22;51109;47.414;18.954;2023-04-24T05:32:21;12.40;99.90
64685;DHT22;51109;47.414;18.954;2023-04-24T05:34:46;12.40;99.90
64685;DHT22;51109;47.414;18.954;2023-04-24T05:37:12;12.40;99.90
64685;DHT22;51109;47.414;18.954;2023-04-24T05:39:38;12.50;99.90
64685;DHT22;51109;47.414;18.954;2023-04-24T05:42:05;12.50;99.90
64685;DHT22;51109;47.414;18.954;2023-04-24T05:44:31;12.50;99.90
64685;DHT22;51109;47.414;18.954;2023-04-24T05:46:57;12.50;99.90
64685;DHT22;51109;47.414;18.954;2023-04-24T05:49:23;12.50;99.90
64685;DHT22;51109;47.414;18.954;2023-04-24T05:51:48;12.60;99.90
64685;DHT22;51109;47.414;18.954;2023-04-24T05:54:14;12.60;99.90
64685;DHT22;51109;47.414;18.954;2023-04-24T05:56:41;12.70;99.90
64685;DHT22;51109;47.414;18.954;2023-04-24T05:59:08;12.80;99.90
64685;DHT22;51109;47.414;18.954;2023-04-24T06:01:34;12.80;99.90
64685;DHT22;51109;47.414;18.954;2023-04-24T06:04:03;12.90;99.90
64685;DHT22;51109;47.414;18.954;2023-04-24T06:06:29;12.90;99.90
64685;DHT22;51109;47.414;18.954;2023-04-24T06:08:55;13.00;99.90
64685;DHT22;51109;47.414;18.954;2023-04-24T06:11:21;13.00;99.90
64685;DHT22;51109;47.414;18.954;2023-04-24T06:13:48;13.10;99.90
64685;DHT22;51109;47.414;18.954;2023-04-24T06:16:14;13.10;99.90
64685;DHT22;51109;47.414;18.954;2023-04-24T06:18:39;13.20;99.90
64685;DHT22;51109;47.414;18.954;2023-04-24T06:21:06;13.10;99.90
64685;DHT22;51109;47.414;18.954;2023-04-24T06:23:31;13.00;99.90
64685;DHT22;51109;47.414;18.954;2023-04-24T06:25:59;12.90;99.90
64685;DHT22;51109;47.414;18.954;2023-04-24T06:28:25;12.90;99.90
64685;DHT22;51109;47.414;18.954;2023-04-24T06:30:51;12.90;99.90
64685;DHT22;51109;47.414;18.954;2023-04-24T06:33:17;12.90;99.90
64685;DHT22;51109;47.414;18.954;2023-04-24T06:35:43;13.00;99.90
64685;DHT22;51109;47.414;18.954;2023-04-24T06:38:09;13.00;99.90
64685;DHT22;51109;47.414;18.954;2023-04-24T06:40:34;13.10;99.90
64685;DHT22;51109;47.414;18.954;2023-04-24T06:43:01;13.10;99.90
64685;DHT22;51109;47.414;18.954;2023-04-24T06:45:30;13.20;99.90
64685;DHT22;51109;47.414;18.954;2023-04-24T06:47:56;13.30;99.90
64685;DHT22;51109;47.414;18.954;2023-04-24T06:50:22;13.40;99.90
64685;DHT22;51109;47.414;18.954;2023-04-24T06:52:48;13.50;99.90
64685;DHT22;51109;47.414;18.954;2023-04-24T06:55:14;13.60;99.90
64685;DHT22;51109;47.414;18.954;2023-04-24T06:57:42;13.60;99.90
64685;DHT22;51109;47.414;18.954;2023-04-24T07:00:10;13.60;99.90
64685;DHT22;51109;47.414;18.954;2023-04-24T07:02:38;13.50;99.90
64685;DHT22;51109;47.414;18.954;2023-04-24T07:05:04;13.50;99.90
64685;DHT22;51109;47.414;18.954;2023-04-24T07:07:30;13.50;99.90
64685;DHT22;51109;47.414;18.954;2023-04-24T07:09:57;13.50;99.90
64685;DHT22;51109;47.414;18.954;2023-04-24T07:12:23;13.50;99.90
64685;DHT22;51109;47.414;18.954;2023-04-24T07:14:50;13.40;99.90
64685;DHT22;51109;47.414;18.954;2023-04-24T07:17:16;13.40;99.90
64685;DHT22;51109;47.414;18.954;2023-04-24T07:19:42;13.30;99.90
64685;DHT22;51109;47.414;18.954;2023-04-24T07:22:08;13.30;99.90
64685;DHT22;51109;47.414;18.954;2023-04-24T07:24:34;13.40;99.90
64685;DHT22;51109;47.414;18.954;2023-04-24T07:27:00;13.50;99.90
64685;DHT22;51109;47.414;18.954;2023-04-24T07:29:29;13.60;99.90
64685;DHT22;51109;47.414;18.954;2023-04-24T07:31:55;13.70;99.90
64685;DHT22;51109;47.414;18.954;2023-04-24T07:34:22;13.90;99.90
64685;DHT22;51109;47.414;18.954;2023-04-24T07:36:48;13.90;99.90
64685;DHT22;51109;47.414;18.954;2023-04-24T07:39:14;14.10;99.90
64685;DHT22;51109;47.414;18.954;2023-04-24T07:41:40;14.30;99.90
64685;DHT22;51109;47.414;18.954;2023-04-24T07:44:06;14.40;99.90
64685;DHT22;51109;47.414;18.954;2023-04-24T07:46:33;14.50;99.90
64685;DHT22;51109;47.414;18.954;2023-04-24T07:48:59;14.50;99.90
64685;DHT22;51109;47.414;18.954;2023-04-24T07:51:27;14.70;99.90
64685;DHT22;51109;47.414;18.954;2023-04-24T07:53:53;15.00;99.90
64685;DHT22;51109;47.414;18.954;2023-04-24T07:56:21;15.10;99.90
64685;DHT22;51109;47.414;18.954;2023-04-24T07:58:47;15.20;99.90
64685;DHT22;51109;47.414;18.954;2023-04-24T08:01:13;15.40;99.90
64685;DHT22;51109;47.414;18.954;2023-04-24T08:03:38;15.40;99.90
64685;DHT22;51109;47.414;18.954;2023-04-24T08:06:05;15.40;99.90
64685;DHT22;51109;47.414;18.954;2023-04-24T08:08:31;15.60;99.90
64685;DHT22;51109;47.414;18.954;2023-04-24T08:10:56;15.70;99.90
64685;DHT22;51109;47.414;18.954;2023-04-24T08:13:22;15.70;99.90
64685;DHT22;51109;47.414;18.954;2023-04-24T08:15:48;15.60;99.90
64685;DHT22;51109;47.414;18.954;2023-04-24T08:18:14;15.60;99.90
64685;DHT22;51109;47.414;18.954;2023-04-24T08:20:41;15.60;99.90
64685;DHT22;51109;47.414;18.954;2023-04-24T08:23:07;15.70;99.90
64685;DHT22;51109;47.414;18.954;2023-04-24T08:25:33;15.80;99.90
64685;DHT22;51109;47.414;18.954;2023-04-24T08:28:02;15.80;99.90
64685;DHT22;51109;47.414;18.954;2023-04-24T08:30:29;15.80;99.90
64685;DHT22;51109;47.414;18.954;2023-04-24T08:32:56;15.70;99.90
64685;DHT22;51109;47.414;18.954;2023-04-24T08:35:22;15.80;99.90
64685;DHT22;51109;47.414;18.954;2023-04-24T08:37:48;15.90;99.90
64685;DHT22;51109;47.414;18.954;2023-04-24T08:40:16;16.00;99.90
64685;DHT22;51109;47.414;18.954;2023-04-24T08:42:43;16.10;99.90
64685;DHT22;51109;47.414;18.954;2023-04-24T08:45:11;16.10;99.90
64685;DHT22;51109;47.414;18.954;2023-04-24T08:47:38;16.10;99.90
64685;DHT22;51109;47.414;18.954;2023-04-24T08:50:04;16.20;99.90
64685;DHT22;51109;47.414;18.954;2023-04-24T08:52:34;16.50;99.90
64685;DHT22;51109;47.414;18.954;2023-04-24T08:55:01;16.80;99.90
64685;DHT22;51109;47.414;18.954;2023-04-24T08:57:28;16.90;99.90
64685;DHT22;51109;47.414;18.954;2023-04-24T08:59:56;17.00;99.90
64685;DHT22;51109;47.414;18.954;2023-04-24T09:02:23;17.20;99.90
64685;DHT22;51109;47.414;18.954;2023-04-24T09:04:51;17.60;99.90
64685;DHT22;51109;47.414;18.954;2023-04-24T09:07:18;17.90;99.90
64685;DHT22;51109;47.414;18.954;2023-04-24T09:09:45;17.90;99.90
64685;DHT22;51109;47.414;18.954;2023-04-24T09:12:11;17.80;99.90
64685;DHT22;51109;47.414;18.954;2023-04-24T09:14:38;17.70;99.90
64685;DHT22;51109;47.414;18.954;2023-04-24T09:17:08;17.70;99.90
64685;DHT22;51109;47.414;18.954;2023-04-24T09:19:34;17.70;99.90
64685;DHT22;51109;47.414;18.954;2023-04-24T09:22:00;17.80;99.90
64685;DHT22;51109;47.414;18.954;2023-04-24T09:24:30;17.90;99.90
64685;DHT22;51109;47.414;18.954;2023-04-24T09:26:57;18.00;99.90
64685;DHT22;51109;47.414;18.954;2023-04-24T09:29:30;18.10;99.90
64685;DHT22;51109;47.414;18.954;2023-04-24T09:31:57;18.10;99.90
64685;DHT22;51109;47.414;18.954;2023-04-24T09:34:25;18.10;99.90
64685;DHT22;51109;47.414;18.954;2023-04-24T09:36:51;18.20;99.90
64685;DHT22;51109;47.414;18.954;2023-04-24T09:39:18;18.10;99.90
64685;DHT22;51109;47.414;18.954;2023-04-24T09:41:55;18.10;99.90
64685;DHT22;51109;47.414;18.954;2023-04-24T09:44:25;18.00;99.90
64685;DHT22;51109;47.414;18.954;2023-04-24T09:46:53;18.00;99.90
64685;DHT22;51109;47.414;18.954;2023-04-24T09:49:29;18.20;99.90
64685;DHT22;51109;47.414;18.954;2023-04-24T09:52:11;18.20;99.90
64685;DHT22;51109;47.414;18.954;2023-04-24T09:54:38;18.00;99.90
64685;DHT22;51109;47.414;18.954;2023-04-24T09:57:04;17.80;99.90
64685;DHT22;51109;47.414;18.954;2023-04-24T09:59:30;17.90;99.90
64685;DHT22;51109;47.414;18.954;2023-04-24T10:01:56;17.90;99.90
64685;DHT22;51109;47.414;18.954;2023-04-24T10:04:26;18.00;99.90
64685;DHT22;51109;47.414;18.954;2023-04-24T10:06:54;18.00;99.90
64685;DHT22;51109;47.414;18.954;2023-04-24T10:09:22;18.00;99.90
64685;DHT22;51109;47.414;18.954;2023-04-24T10:11:51;18.00;99.90
64685;DHT22;51109;47.414;18.954;2023-04-24T10:14:26;17.90;99.90
64685;DHT22;51109;47.414;18.954;2023-04-24T10:16:55;17.90;99.90
64685;DHT22;51109;47.414;18.954;2023-04-24T10:19:25;18.00;99.90
64685;DHT22;51109;47.414;18.954;2023-04-24T10:21:56;18.00;99.90
64685;DHT22;51109;47.414;18.954;2023-04-24T10:24:23;17.90;99.90
64685;DHT22;51109;47.414;18.954;2023-04-24T10:26:48;18.00;99.90
64685;DHT22;51109;47.414;18.954;2023-04-24T10:29:16;18.00;99.90
64685;DHT22;51109;47.414;18.954;2023-04-24T10:31:43;18.00;99.90
64685;DHT22;51109;47.414;18.954;2023-04-24T10:34:11;18.00;99.90
64685;DHT22;51109;47.414;18.954;2023-04-24T10:36:41;18.00;99.90
64685;DHT22;51109;47.414;18.954;2023-04-24T10:39:12;18.00;99.90
64685;DHT22;51109;47.414;18.954;2023-04-24T10:41:38;18.30;99.90
64685;DHT22;51109;47.414;18.954;2023-04-24T10:46:31;18.30;99.90
64685;DHT22;51109;47.414;18.954;2023-04-24T10:48:57;18.20;99.90
64685;DHT22;51109;47.414;18.954;2023-04-24T10:51:24;18.20;99.90
64685;DHT22;51109;47.414;18.954;2023-04-24T10:54:25;18.40;99.90
64685;DHT22;51109;47.414;18.954;2023-04-24T10:56:52;18.50;99.90
64685;DHT22;51109;47.414;18.954;2023-04-24T10:59:28;18.50;99.90
64685;DHT22;51109;47.414;18.954;2023-04-24T11:02:00;18.50;99.90
64685;DHT22;51109;47.414;18.954;2023-04-24T11:04:30;18.50;99.90
64685;DHT22;51109;47.414;18.954;2023-04-24T11:06:57;18.50;99.90
64685;DHT22;51109;47.414;18.954;2023-04-24T11:09:26;18.70;99.90
64685;DHT22;51109;47.414;18.954;2023-04-24T11:12:03;18.80;99.90
64685;DHT22;51109;47.414;18.954;2023-04-24T11:14:30;19.00;99.90
64685;DHT22;51109;47.414;18.954;2023-04-24T11:20:08;19.20;99.90
64685;DHT22;51109;47.414;18.954;2023-04-24T11:22:39;19.30;99.90
64685;DHT22;51109;47.414;18.954;2023-04-24T11:25:11;19.60;99.90
64685;DHT22;51109;47.414;18.954;2023-04-24T11:27:41;19.90;99.90
64685;DHT22;51109;47.414;18.954;2023-04-24T11:30:10;20.20;99.90
64685;DHT22;51109;47.414;18.954;2023-04-24T11:32:41;20.20;99.90
64685;DHT22;51109;47.414;18.954;2023-04-24T11:35:17;20.10;99.90
64685;DHT22;51109;47.414;18.954;2023-04-24T11:37:47;20.40;99.90
64685;DHT22;51109;47.414;18.954;2023-04-24T11:40:16;20.50;99.90
64685;DHT22;51109;47.414;18.954;2023-04-24T11:42:44;20.50;99.90
64685;DHT22;51109;47.414;18.954;2023-04-24T11:45:15;20.40;99.90
64685;DHT22;51109;47.414;18.954;2023-04-24T11:47:42;20.20;99.90
64685;DHT22;51109;47.414;18.954;2023-04-24T11:50:11;20.10;99.90
64685;DHT22;51109;47.414;18.954;2023-04-24T11:52:40;20.10;99.90
64685;DHT22;51109;47.414;18.954;2023-04-24T11:57:48;20.80;99.90
64685;DHT22;51109;47.414;18.954;2023-04-24T12:00:22;20.80;99.90
64685;DHT22;51109;47.414;18.954;2023-04-24T12:02:49;20.60;99.90
64685;DHT22;51109;47.414;18.954;2023-04-24T12:05:22;20.40;99.90
64685;DHT22;51109;47.414;18.954;2023-04-24T12:07:49;20.30;99.90
64685;DHT22;51109;47.414;18.954;2023-04-24T12:10:26;20.40;99.90
64685;DHT22;51109;47.414;18.954;2023-04-24T12:12:52;20.40;99.90
64685;DHT22;51109;47.414;18.954;2023-04-24T12:15:20;20.90;99.90
64685;DHT22;51109;47.414;18.954;2023-04-24T12:17:46;21.00;99.90
64685;DHT22;51109;47.414;18.954;2023-04-24T12:20:14;21.00;99.90
64685;DHT22;51109;47.414;18.954;2023-04-24T12:22:47;21.20;99.90
64685;DHT22;51109;47.414;18.954;2023-04-24T12:25:15;21.40;99.90
64685;DHT22;51109;47.414;18.954;2023-04-24T12:27:42;21.70;99.90
64685;DHT22;51109;47.414;18.954;2023-04-24T12:30:15;21.70;99.90
64685;DHT22;51109;47.414;18.954;2023-04-24T12:32:50;21.60;99.90
64685;DHT22;51109;47.414;18.954;2023-04-24T12:35:23;21.30;99.90
64685;DHT22;51109;47.414;18.954;2023-04-24T12:37:50;21.40;99.90
64685;DHT22;51109;47.414;18.954;2023-04-24T12:40:17;21.00;99.90
64685;DHT22;51109;47.414;18.954;2023-04-24T12:42:46;20.80;99.90
64685;DHT22;51109;47.414;18.954;2023-04-24T12:45:13;20.60;99.90
64685;DHT22;51109;47.414;18.954;2023-04-24T12:47:40;20.30;99.90
64685;DHT22;51109;47.414;18.954;2023-04-24T12:50:08;20.30;99.90
64685;DHT22;51109;47.414;18.954;2023-04-24T12:52:34;20.20;99.90
64685;DHT22;51109;47.414;18.954;2023-04-24T12:55:01;19.90;99.90
64685;DHT22;51109;47.414;18.954;2023-04-24T12:57:29;19.60;99.90
64685;DHT22;51109;47.414;18.954;2023-04-24T12:59:56;19.40;99.90
64685;DHT22;51109;47.414;18.954;2023-04-24T13:02:27;19.20;99.90
64685;DHT22;51109;47.414;18.954;2023-04-24T13:04:53;19.10;99.90
64685;DHT22;51109;47.414;18.954;2023-04-24T13:07:20;19.00;99.90
64685;DHT22;51109;47.414;18.954;2023-04-24T13:09:48;19.00;99.90
64685;DHT22;51109;47.414;18.954;2023-04-24T13:12:14;18.90;99.90
64685;DHT22;51109;47.414;18.954;2023-04-24T13:14:40;18.60;99.90
64685;DHT22;51109;47.414;18.954;2023-04-24T13:17:06;18.40;99.90
64685;DHT22;51109;47.414;18.954;2023-04-24T13:19:37;18.10;99.90
64685;DHT22;51109;47.414;18.954;2023-04-24T13:22:04;18.00;99.90
64685;DHT22;51109;47.414;18.954;2023-04-24T13:24:31;18.00;99.90
64685;DHT22;51109;47.414;18.954;2023-04-24T13:26:58;18.00;99.90
64685;DHT22;51109;47.414;18.954;2023-04-24T13:29:24;18.00;99.90
64685;DHT22;51109;47.414;18.954;2023-04-24T13:31:51;18.00;99.90
64685;DHT22;51109;47.414;18.954;2023-04-24T13:34:17;17.80;99.90
64685;DHT22;51109;47.414;18.954;2023-04-24T13:36:44;17.70;99.90
64685;DHT22;51109;47.414;18.954;2023-04-24T13:39:10;17.50;99.90
64685;DHT22;51109;47.414;18.954;2023-04-24T13:41:36;17.40;99.90
64685;DHT22;51109;47.414;18.954;2023-04-24T13:44:03;17.40;99.90
64685;DHT22;51109;47.414;18.954;2023-04-24T13:46:29;17.20;99.90
64685;DHT22;51109;47.414;18.954;2023-04-24T13:48:55;17.10;99.90
64685;DHT22;51109;47.414;18.954;2023-04-24T13:51:23;17.10;99.90
64685;DHT22;51109;47.414;18.954;2023-04-24T13:53:49;16.80;99.90
64685;DHT22;51109;47.414;18.954;2023-04-24T13:56:15;16.50;99.90
64685;DHT22;51109;47.414;18.954;2023-04-24T13:58:41;16.30;99.90
64685;DHT22;51109;47.414;18.954;2023-04-24T14:01:07;16.10;99.90
64685;DHT22;51109;47.414;18.954;2023-04-24T14:03:33;15.90;99.90
64685;DHT22;51109;47.414;18.954;2023-04-24T14:05:59;15.80;99.90
64685;DHT22;51109;47.414;18.954;2023-04-24T14:08:25;15.80;99.90
64685;DHT22;51109;47.414;18.954;2023-04-24T14:10:51;15.80;99.90
64685;DHT22;51109;47.414;18.954;2023-04-24T14:13:17;16.00;99.90
64685;DHT22;51109;47.414;18.954;2023-04-24T14:15:44;16.10;99.90
64685;DHT22;51109;47.414;18.954;2023-04-24T14:18:10;16.30;99.90
64685;DHT22;51109;47.414;18.954;2023-04-24T14:20:36;16.30;99.90
64685;DHT22;51109;47.414;18.954;2023-04-24T14:23:03;16.30;99.90
64685;DHT22;51109;47.414;18.954;2023-04-24T14:25:30;16.80;99.90
64685;DHT22;51109;47.414;18.954;2023-04-24T14:27:56;17.10;99.90
64685;DHT22;51109;47.414;18.954;2023-04-24T14:30:24;16.60;99.90
64685;DHT22;51109;47.414;18.954;2023-04-24T14:32:50;16.40;99.90
64685;DHT22;51109;47.414;18.954;2023-04-24T14:35:16;16.10;99.90
64685;DHT22;51109;47.414;18.954;2023-04-24T14:37:42;16.10;99.90
64685;DHT22;51109;47.414;18.954;2023-04-24T14:40:09;16.00;99.90
64685;DHT22;51109;47.414;18.954;2023-04-24T14:42:35;16.00;99.90
64685;DHT22;51109;47.414;18.954;2023-04-24T14:45:01;15.90;99.90
64685;DHT22;51109;47.414;18.954;2023-04-24T14:47:28;16.00;99.90
64685;DHT22;51109;47.414;18.954;2023-04-24T14:49:59;16.70;99.90
64685;DHT22;51109;47.414;18.954;2023-04-24T14:52:25;17.00;99.90
64685;DHT22;51109;47.414;18.954;2023-04-24T14:54:51;16.80;99.90
64685;DHT22;51109;47.414;18.954;2023-04-24T14:57:17;16.40;99.90
64685;DHT22;51109;47.414;18.954;2023-04-24T14:59:44;16.20;99.90
64685;DHT22;51109;47.414;18.954;2023-04-24T15:02:10;16.20;99.90
64685;DHT22;51109;47.414;18.954;2023-04-24T15:04:36;16.00;99.90
64685;DHT22;51109;47.414;18.954;2023-04-24T15:07:02;16.00;99.90
64685;DHT22;51109;47.414;18.954;2023-04-24T15:09:28;16.00;99.90
64685;DHT22;51109;47.414;18.954;2023-04-24T15:11:53;15.80;99.90
64685;DHT22;51109;47.414;18.954;2023-04-24T15:14:20;15.70;99.90
64685;DHT22;51109;47.414;18.954;2023-04-24T15:16:46;15.60;99.90
64685;DHT22;51109;47.414;18.954;2023-04-24T15:19:12;15.50;99.90
64685;DHT22;51109;47.414;18.954;2023-04-24T15:21:38;15.40;99.90
64685;DHT22;51109;47.414;18.954;2023-04-24T15:24:06;15.40;99.90